Darlington, New Jersey
Current Conditions -  °F | °C
As of 7:51 AM on Thursday 23 Oct 2014 (Local Time) from KTEB Reporting Station
Moderate Rain Moderate Rain  
Wind Chill: 11°   Ceiling: 2100
Heat Index: 11°   Visibility: 10mi
Dew Point:   Wind: 7mph
Humidity: 83%   Direction: 350°N
Pressure: 29.7"   Gusts: 21mph
Location:  41.0594°N, 74.1457°W
Report Text: KTEB 231151Z 35006G18KT 10SM RA OVC021 11/08 A2970 RMK AO2 RAE01B33 SLP057 P0003 60007 70057 T01060078 10117 20106 57001 $
Loading
Personal Weather Stations






























Interactive Weather Map
Tropical Storm Tracking
New forecast layout! Learn more

10-Day Weather Forecast

Advertisements
Track Severe Weather on mobile